Time;durP1;ratioP1;P1;durP2;ratioP2;P2;SDS_P1;SDS_P2;PMS_P1;PMS_P2;Temp;Humidity;BMP_temperature;BMP_pressure;BME280_temperature;BME280_humidity;BME280_pressure;Samples;Min_cycle;Max_cycle;Signal;HPM_P1;HPM_P2
2023/01/09 00:00:17;;;;;;;2.45;0.57;;;9.70;99.90;;;;;;5033537;28;20030;-83
2023/01/09 00:02:44;;;;;;;2.38;0.60;;;9.60;99.90;;;;;;5033711;28;20025;-83
2023/01/09 00:05:11;;;;;;;2.55;0.30;;;9.60;99.90;;;;;;5000675;28;20061;-84
2023/01/09 00:07:37;;;;;;;1.48;0.30;;;9.60;99.90;;;;;;5035204;28;20030;-84
2023/01/09 00:10:04;;;;;;;2.75;0.35;;;9.50;99.90;;;;;;5034768;28;20024;-84
2023/01/09 00:12:29;;;;;;;2.67;0.70;;;9.50;99.90;;;;;;5018030;28;20033;-84
2023/01/09 00:14:55;;;;;;;3.92;0.52;;;9.50;99.90;;;;;;5017357;28;20033;-84
2023/01/09 00:17:21;;;;;;;4.55;0.57;;;9.50;99.90;;;;;;5034706;28;20029;-84
2023/01/09 00:19:46;;;;;;;0.55;0.10;;;9.50;99.90;;;;;;5017001;28;20116;-83
2023/01/09 00:22:12;;;;;;;1.23;0.20;;;9.40;99.90;;;;;;5016960;28;20029;-84
2023/01/09 00:24:37;;;;;;;2.00;0.20;;;9.50;99.90;;;;;;5017372;28;20029;-83
2023/01/09 00:27:03;;;;;;;2.88;0.10;;;9.50;99.90;;;;;;5033596;28;20049;-84
2023/01/09 00:29:29;;;;;;;1.05;0.10;;;9.40;99.90;;;;;;5033837;28;20029;-84
2023/01/09 00:31:55;;;;;;;2.17;0.20;;;9.40;99.90;;;;;;5034087;28;20026;-83
2023/01/09 00:34:21;;;;;;;2.08;0.10;;;9.40;99.90;;;;;;5032992;28;20050;-84
2023/01/09 00:36:47;;;;;;;2.75;0.20;;;9.40;99.90;;;;;;5017151;28;20029;-83
2023/01/09 00:39:13;;;;;;;1.25;0.17;;;9.40;99.90;;;;;;5000863;28;20026;-84
2023/01/09 00:41:43;;;;;;;3.10;0.95;;;9.30;99.90;;;;;;5034500;28;20032;-83
2023/01/09 00:44:19;;;;;;;1.38;0.20;;;9.40;99.90;;;;;;5032999;28;20108;-83
2023/01/09 00:46:50;;;;;;;1.55;0.10;;;9.30;99.90;;;;;;5033554;28;20115;-83
2023/01/09 00:49:16;;;;;;;1.95;0.10;;;9.30;99.90;;;;;;5033536;28;20025;-83
2023/01/09 00:51:42;;;;;;;1.08;0.10;;;9.20;99.90;;;;;;5033203;28;20116;-83
2023/01/09 00:54:10;;;;;;;1.15;0.05;;;9.20;99.90;;;;;;5017035;28;20192;-84
2023/01/09 00:56:36;;;;;;;2.75;0.20;;;9.20;99.90;;;;;;5032865;28;20052;-84
2023/01/09 00:59:02;;;;;;;2.45;0.10;;;9.10;99.90;;;;;;5016385;28;20095;-85
2023/01/09 01:01:28;;;;;;;0.95;0.10;;;9.10;99.90;;;;;;5016841;28;20056;-85
2023/01/09 01:03:54;;;;;;;0.95;0.10;;;9.10;99.90;;;;;;5033196;28;20461;-85
2023/01/09 01:09:04;;;;;;;4.28;0.32;;;9.00;99.90;;;;;;5033130;28;20087;-85
2023/01/09 01:11:32;;;;;;;1.52;0.10;;;9.00;99.90;;;;;;5000422;28;20466;-85
2023/01/09 01:13:57;;;;;;;2.08;0.10;;;8.90;99.90;;;;;;5032474;28;20472;-85
2023/01/09 01:16:23;;;;;;;0.90;0.10;;;9.00;99.90;;;;;;5032666;28;20116;-84
2023/01/09 01:18:49;;;;;;;1.13;0.10;;;9.00;99.90;;;;;;5015942;28;20029;-84
2023/01/09 01:21:15;;;;;;;2.60;0.17;;;8.90;99.90;;;;;;5016437;28;20056;-84
2023/01/09 01:23:41;;;;;;;0.95;0.10;;;8.90;99.90;;;;;;5016438;28;20036;-84
2023/01/09 01:26:10;;;;;;;1.13;0.10;;;8.80;99.90;;;;;;5032239;28;20355;-84
2023/01/09 01:28:36;;;;;;;1.27;0.20;;;8.90;99.90;;;;;;5033011;28;20029;-84
2023/01/09 01:31:02;;;;;;;0.70;0.10;;;8.90;99.90;;;;;;5033124;28;20458;-84
2023/01/09 01:33:29;;;;;;;2.38;0.17;;;8.80;99.90;;;;;;5031687;28;20045;-83
2023/01/09 01:36:07;;;;;;;0.50;0.10;;;8.80;99.90;;;;;;5032206;28;20017;-84
2023/01/09 01:38:33;;;;;;;0.43;0.20;;;8.80;99.90;;;;;;5033183;28;20044;-84
2023/01/09 01:41:01;;;;;;;1.00;0.20;;;8.80;99.90;;;;;;5032790;28;20132;-84
2023/01/09 01:43:26;;;;;;;3.22;0.30;;;8.80;99.90;;;;;;5032534;28;20362;-84
2023/01/09 01:45:52;;;;;;;1.63;0.20;;;8.70;99.90;;;;;;5032308;28;20037;-82
2023/01/09 01:48:28;;;;;;;2.08;0.40;;;8.70;99.90;;;;;;5033387;28;20025;-82
2023/01/09 01:51:01;;;;;;;3.47;0.30;;;8.70;99.90;;;;;;5031792;28;20025;-82
2023/01/09 01:53:37;;;;;;;0.63;0.20;;;8.60;99.90;;;;;;5032708;28;20048;-82
2023/01/09 01:56:23;;;;;;;2.03;0.30;;;8.60;99.90;;;;;;5032126;28;20037;-83
2023/01/09 01:59:15;;;;;;;2.35;0.40;;;8.60;99.90;;;;;;5031285;28;20064;-83
2023/01/09 02:01:44;;;;;;;1.73;0.35;;;8.60;99.90;;;;;;5033137;28;20033;-83
2023/01/09 02:04:10;;;;;;;2.28;0.20;;;8.60;99.90;;;;;;5031612;28;20112;-83
2023/01/09 02:06:36;;;;;;;2.45;0.30;;;8.50;99.90;;;;;;5015533;28;20049;-84
2023/01/09 02:09:04;;;;;;;2.95;0.98;;;8.50;99.90;;;;;;5031553;28;20450;-83
2023/01/09 02:11:30;;;;;;;1.80;0.40;;;8.50;99.90;;;;;;5031416;28;20029;-83
2023/01/09 02:13:56;;;;;;;0.75;0.28;;;8.50;99.90;;;;;;5032001;28;20029;-83
2023/01/09 02:16:46;;;;;;;1.92;0.50;;;8.50;99.90;;;;;;5015190;28;20029;-83
2023/01/09 02:19:48;;;;;;;2.75;0.38;;;8.50;99.90;;;;;;5033091;28;20021;-84
2023/01/09 02:22:17;;;;;;;1.25;0.32;;;8.50;99.90;;;;;;5032081;28;20494;-84
2023/01/09 02:25:11;;;;;;;2.65;1.13;;;8.50;99.90;;;;;;5031801;28;20020;-83
2023/01/09 02:28:01;;;;;;;2.63;0.35;;;8.50;99.90;;;;;;5031004;28;20025;-84
2023/01/09 02:30:50;;;;;;;1.83;0.35;;;8.50;99.90;;;;;;5035451;28;20470;-84
2023/01/09 02:33:39;;;;;;;3.03;0.77;;;8.40;99.90;;;;;;5034574;28;20053;-84
2023/01/09 02:36:38;;;;;;;3.10;0.50;;;8.30;99.90;;;;;;5034869;28;20407;-84
2023/01/09 02:39:24;;;;;;;2.28;0.40;;;8.30;99.90;;;;;;5034674;28;20018;-83
2023/01/09 02:42:02;;;;;;;2.92;0.32;;;8.30;99.90;;;;;;5036139;28;20070;-83
2023/01/09 02:44:31;;;;;;;1.05;0.50;;;8.20;99.90;;;;;;5035002;28;20465;-83
2023/01/09 02:47:02;;;;;;;1.70;0.30;;;8.20;99.90;;;;;;5036043;28;20048;-83
2023/01/09 02:49:29;;;;;;;3.97;0.30;;;8.20;99.90;;;;;;5034610;28;20021;-83
2023/01/09 02:52:11;;;;;;;2.85;0.50;;;8.20;99.90;;;;;;5034949;28;20033;-83
2023/01/09 02:54:55;;;;;;;2.70;0.50;;;8.20;99.90;;;;;;5035701;28;20028;-83
2023/01/09 02:57:33;;;;;;;3.00;0.40;;;8.10;99.90;;;;;;5035059;28;20022;-83
2023/01/09 03:00:15;;;;;;;3.17;0.63;;;8.20;99.90;;;;;;5035795;28;20029;-84
2023/01/09 03:02:57;;;;;;;2.97;0.40;;;8.10;99.90;;;;;;5035715;28;20017;-83
2023/01/09 03:05:59;;;;;;;2.33;0.40;;;8.00;99.90;;;;;;5034659;28;20021;-84
2023/01/09 03:08:41;;;;;;;3.08;0.77;;;8.10;99.90;;;;;;5034129;28;20326;-84
2023/01/09 03:11:08;;;;;;;2.53;0.70;;;8.00;99.90;;;;;;5033867;28;20075;-83
2023/01/09 03:13:43;;;;;;;4.75;0.55;;;8.00;99.90;;;;;;5034126;28;20025;-84
2023/01/09 03:16:12;;;;;;;1.70;0.50;;;8.00;99.90;;;;;;5033853;28;20026;-83
2023/01/09 03:18:38;;;;;;;1.42;0.30;;;8.00;99.90;;;;;;5034121;28;20116;-83
2023/01/09 03:21:06;;;;;;;5.00;0.50;;;8.00;99.90;;;;;;5033810;28;20055;-84
2023/01/09 03:23:52;;;;;;;7.15;1.02;;;8.00;99.90;;;;;;5035499;28;20104;-83
2023/01/09 03:26:18;;;;;;;6.22;0.80;;;8.00;99.90;;;;;;5033965;28;20032;-84
2023/01/09 03:28:45;;;;;;;2.15;0.80;;;8.00;99.90;;;;;;5033973;28;20434;-83
2023/01/09 03:31:10;;;;;;;3.10;0.57;;;8.00;99.90;;;;;;5000833;28;20030;-83
2023/01/09 03:33:36;;;;;;;4.50;0.70;;;8.00;99.90;;;;;;5033468;28;20045;-83
2023/01/09 03:36:03;;;;;;;3.97;0.82;;;8.00;99.90;;;;;;5034127;28;20025;-84
2023/01/09 03:38:28;;;;;;;2.55;0.60;;;8.10;99.90;;;;;;5034030;28;20113;-83
2023/01/09 03:40:54;;;;;;;3.33;0.90;;;8.10;99.90;;;;;;5016081;28;20030;-84
2023/01/09 03:43:19;;;;;;;6.10;0.70;;;8.10;99.90;;;;;;5017600;28;20029;-84
2023/01/09 03:45:45;;;;;;;4.03;0.50;;;8.10;99.90;;;;;;5033889;28;20078;-84
2023/01/09 03:48:11;;;;;;;2.63;0.80;;;8.10;99.90;;;;;;5017085;28;20029;-84
2023/01/09 03:50:36;;;;;;;2.45;0.50;;;8.10;99.90;;;;;;5033388;28;20144;-84
2023/01/09 03:53:02;;;;;;;4.38;0.73;;;8.10;99.90;;;;;;5017060;28;20025;-84
2023/01/09 03:55:27;;;;;;;4.40;0.68;;;8.00;99.90;;;;;;5017056;28;20034;-84
2023/01/09 03:57:53;;;;;;;4.53;1.00;;;8.00;99.90;;;;;;5033204;28;20052;-84
2023/01/09 04:00:19;;;;;;;4.32;0.70;;;8.00;99.90;;;;;;5017176;28;20033;-84
2023/01/09 04:02:45;;;;;;;5.25;0.95;;;8.00;99.90;;;;;;5033820;28;20179;-84
2023/01/09 04:05:11;;;;;;;5.40;0.77;;;7.90;99.90;;;;;;5017229;28;20053;-83
2023/01/09 04:07:36;;;;;;;4.00;0.57;;;7.90;99.90;;;;;;5016774;28;20565;-84
2023/01/09 04:10:03;;;;;;;3.17;0.60;;;7.90;99.90;;;;;;5016721;28;20025;-84
2023/01/09 04:12:28;;;;;;;3.58;0.70;;;7.90;99.90;;;;;;5016595;28;20033;-84
2023/01/09 04:14:54;;;;;;;3.42;0.40;;;7.90;99.90;;;;;;5034718;28;20035;-84
2023/01/09 04:17:19;;;;;;;2.80;0.70;;;7.90;99.90;;;;;;5033749;28;20458;-84
2023/01/09 04:19:45;;;;;;;5.72;0.60;;;7.90;99.90;;;;;;5033058;28;20358;-83
2023/01/09 04:22:11;;;;;;;2.67;0.50;;;7.80;99.90;;;;;;5016491;28;20481;-84
2023/01/09 04:24:36;;;;;;;4.47;0.52;;;7.80;99.90;;;;;;5033246;28;20017;-84
2023/01/09 04:27:02;;;;;;;3.35;0.88;;;7.70;99.90;;;;;;5032464;28;20056;-84
2023/01/09 04:29:28;;;;;;;6.57;0.70;;;7.70;99.90;;;;;;5033295;28;20343;-84
2023/01/09 04:31:54;;;;;;;4.07;0.80;;;7.70;99.90;;;;;;5016263;28;20530;-83
2023/01/09 04:34:24;;;;;;;5.90;0.90;;;7.70;99.90;;;;;;4999693;28;20099;-84
2023/01/09 04:36:53;;;;;;;5.80;0.50;;;7.60;99.90;;;;;;5017417;28;20450;-84
2023/01/09 04:39:19;;;;;;;3.17;1.13;;;7.60;99.90;;;;;;5034219;28;20081;-84
2023/01/09 04:41:47;;;;;;;5.47;0.75;;;7.60;99.90;;;;;;5032813;28;20057;-84
2023/01/09 04:44:14;;;;;;;4.43;0.80;;;7.60;99.90;;;;;;5032906;28;20059;-84
2023/01/09 04:46:40;;;;;;;4.22;0.80;;;7.60;99.90;;;;;;5034390;28;20029;-84
2023/01/09 04:49:05;;;;;;;4.90;0.73;;;7.60;99.90;;;;;;5035304;28;20032;-84
2023/01/09 04:51:31;;;;;;;4.57;0.70;;;7.60;99.90;;;;;;5034722;28;20060;-84
2023/01/09 04:53:56;;;;;;;4.60;1.10;;;7.70;99.90;;;;;;5032850;28;20398;-84
2023/01/09 04:56:22;;;;;;;8.65;1.10;;;7.60;99.90;;;;;;5033611;28;20383;-84
2023/01/09 04:58:48;;;;;;;6.45;1.20;;;7.60;99.90;;;;;;5001461;28;20029;-84
2023/01/09 05:01:13;;;;;;;2.88;0.82;;;7.60;99.90;;;;;;5033411;28;20041;-84
2023/01/09 05:03:39;;;;;;;3.92;1.10;;;7.60;99.90;;;;;;5000558;28;20021;-84
2023/01/09 05:06:05;;;;;;;6.10;1.30;;;7.70;99.90;;;;;;5016392;28;20030;-84
2023/01/09 05:08:30;;;;;;;4.88;1.10;;;7.60;99.90;;;;;;4999874;28;20060;-84
2023/01/09 05:10:56;;;;;;;5.78;1.50;;;7.60;99.90;;;;;;5015798;28;20080;-84
2023/01/09 05:13:22;;;;;;;6.90;1.58;;;7.60;99.90;;;;;;5032427;28;20060;-84
2023/01/09 05:15:47;;;;;;;4.20;1.27;;;7.60;99.90;;;;;;5034067;28;20029;-84
2023/01/09 05:18:13;;;;;;;8.40;1.52;;;7.60;99.90;;;;;;5016081;28;20026;-83
2023/01/09 05:20:38;;;;;;;5.60;1.10;;;7.70;99.90;;;;;;5032263;28;20565;-83
2023/01/09 05:23:04;;;;;;;5.93;1.13;;;7.60;99.90;;;;;;5016143;28;20401;-84
2023/01/09 05:25:30;;;;;;;4.22;1.13;;;7.60;99.90;;;;;;5032223;28;20473;-83
2023/01/09 05:27:55;;;;;;;4.75;1.15;;;7.70;99.90;;;;;;5015511;28;20555;-83
2023/01/09 05:30:21;;;;;;;6.40;0.98;;;7.70;99.90;;;;;;5015513;28;20442;-84
2023/01/09 05:32:47;;;;;;;5.43;1.08;;;7.70;99.90;;;;;;5031555;28;20041;-83
2023/01/09 05:35:12;;;;;;;3.47;0.68;;;7.70;99.90;;;;;;5015384;28;20116;-83
2023/01/09 05:37:38;;;;;;;8.23;1.05;;;7.70;99.90;;;;;;5032458;28;20441;-82
2023/01/09 05:40:05;;;;;;;11.27;1.15;;;7.70;99.90;;;;;;5000078;28;20367;-81
2023/01/09 05:42:31;;;;;;;5.15;0.70;;;7.70;99.90;;;;;;5032206;28;20018;-83
2023/01/09 05:44:57;;;;;;;6.40;0.90;;;7.70;99.90;;;;;;5015724;28;20125;-83
2023/01/09 05:47:22;;;;;;;4.28;0.50;;;7.70;99.90;;;;;;5015936;28;20030;-83
2023/01/09 05:49:48;;;;;;;5.60;0.75;;;7.70;99.90;;;;;;4999995;28;20029;-83
2023/01/09 05:52:13;;;;;;;3.90;0.60;;;7.70;99.90;;;;;;5032424;28;20037;-83
2023/01/09 05:54:39;;;;;;;3.45;0.75;;;7.80;99.90;;;;;;5015290;28;20029;-83
2023/01/09 05:57:05;;;;;;;4.43;0.70;;;7.80;99.90;;;;;;5032246;28;20128;-83
2023/01/09 05:59:30;;;;;;;10.10;1.05;;;7.80;99.90;;;;;;5031863;28;20037;-83
2023/01/09 06:01:56;;;;;;;7.47;0.93;;;7.70;99.90;;;;;;5033376;28;20040;-83
2023/01/09 06:04:22;;;;;;;5.97;0.65;;;7.70;99.90;;;;;;5017828;28;20025;-83
2023/01/09 06:06:47;;;;;;;3.55;0.52;;;7.70;99.90;;;;;;5035987;28;20044;-84
2023/01/09 06:09:13;;;;;;;5.43;0.65;;;7.70;99.90;;;;;;5019410;28;20079;-84
2023/01/09 06:11:39;;;;;;;4.38;0.60;;;7.70;99.90;;;;;;5035705;28;20408;-83
2023/01/09 06:14:05;;;;;;;6.97;1.30;;;7.70;99.90;;;;;;5003004;28;20029;-82
2023/01/09 06:16:31;;;;;;;7.15;0.68;;;7.80;99.90;;;;;;5019102;28;20033;-83
2023/01/09 06:18:56;;;;;;;6.18;0.75;;;7.80;99.90;;;;;;5002864;28;20032;-83
2023/01/09 06:21:22;;;;;;;7.63;0.68;;;7.80;99.90;;;;;;5036071;28;20033;-84
2023/01/09 06:23:50;;;;;;;7.25;0.70;;;7.80;99.90;;;;;;5003017;28;20108;-84
2023/01/09 06:26:16;;;;;;;6.97;0.73;;;7.90;99.90;;;;;;5036780;28;20034;-84
2023/01/09 06:28:42;;;;;;;5.10;0.90;;;7.90;99.90;;;;;;5019676;28;20037;-83
2023/01/09 06:31:10;;;;;;;7.55;0.93;;;7.90;99.90;;;;;;5035393;28;20381;-83
2023/01/09 06:33:36;;;;;;;7.28;0.60;;;7.90;99.90;;;;;;5035350;28;20076;-83
2023/01/09 06:36:02;;;;;;;3.58;0.45;;;8.00;99.90;;;;;;5035051;28;20426;-83
2023/01/09 06:38:30;;;;;;;6.15;1.30;;;7.90;99.90;;;;;;5035180;28;20024;-84
2023/01/09 06:40:59;;;;;;;6.38;0.60;;;7.90;99.90;;;;;;5035116;28;20080;-84
2023/01/09 06:43:24;;;;;;;7.50;0.63;;;8.00;99.90;;;;;;5035116;28;20020;-79
2023/01/09 06:45:50;;;;;;;5.80;0.55;;;8.10;99.90;;;;;;5035970;28;20451;-78
2023/01/09 06:48:18;;;;;;;7.55;0.63;;;8.00;99.90;;;;;;5034899;28;20186;-77
2023/01/09 06:50:46;;;;;;;10.30;0.80;;;8.00;99.90;;;;;;5037173;28;20021;-81
2023/01/09 06:53:15;;;;;;;10.48;0.57;;;8.00;99.90;;;;;;5035888;28;20041;-84
2023/01/09 06:55:52;;;;;;;4.55;0.52;;;8.00;99.90;;;;;;5018964;28;20025;-83
2023/01/09 06:58:19;;;;;;;7.35;0.82;;;8.00;99.90;;;;;;5035461;28;20462;-77
2023/01/09 07:00:45;;;;;;;7.13;1.48;;;8.00;99.90;;;;;;5034678;28;20374;-78
2023/01/09 07:03:10;;;;;;;11.30;1.58;;;8.00;99.90;;;;;;5034840;28;20032;-78
2023/01/09 07:05:41;;;;;;;9.15;1.63;;;7.90;99.90;;;;;;5035912;28;20033;-77
2023/01/09 07:08:08;;;;;;;10.65;2.60;;;8.00;99.90;;;;;;5034544;28;20052;-78
2023/01/09 07:10:34;;;;;;;6.82;0.75;;;8.00;99.90;;;;;;5034953;28;20083;-78
2023/01/09 07:13:00;;;;;;;10.30;1.25;;;8.00;99.90;;;;;;5034439;28;20021;-78
2023/01/09 07:15:26;;;;;;;7.25;0.70;;;8.10;99.90;;;;;;5018232;28;20040;-77
2023/01/09 07:17:52;;;;;;;7.20;0.90;;;8.00;99.90;;;;;;5034049;28;20028;-78
2023/01/09 07:20:18;;;;;;;8.02;0.88;;;8.00;99.90;;;;;;5001082;28;20029;-78
2023/01/09 07:22:45;;;;;;;6.60;0.95;;;8.00;99.90;;;;;;5034025;28;20033;-77
2023/01/09 07:25:11;;;;;;;7.30;0.77;;;8.10;99.90;;;;;;5034272;28;20045;-80
2023/01/09 07:27:36;;;;;;;5.68;0.63;;;8.10;99.90;;;;;;5033692;28;20492;-79
2023/01/09 07:30:04;;;;;;;9.23;1.13;;;8.10;99.90;;;;;;5034317;28;20167;-80
2023/01/09 07:32:30;;;;;;;12.45;1.10;;;8.20;99.90;;;;;;5033761;28;20049;-79
2023/01/09 07:34:56;;;;;;;7.40;1.00;;;8.20;99.90;;;;;;5001749;28;20453;-79
2023/01/09 07:37:21;;;;;;;10.90;1.20;;;8.20;99.90;;;;;;5034266;28;20032;-78
2023/01/09 07:39:47;;;;;;;12.63;1.52;;;8.10;99.90;;;;;;5033664;28;20025;-78
2023/01/09 07:42:13;;;;;;;6.95;0.88;;;8.20;99.90;;;;;;5001053;28;20539;-78
2023/01/09 07:44:39;;;;;;;8.32;1.48;;;8.20;99.90;;;;;;5034034;28;20104;-77
2023/01/09 07:47:05;;;;;;;8.25;0.95;;;8.20;99.90;;;;;;5033744;28;20116;-78
2023/01/09 07:49:30;;;;;;;12.05;1.25;;;8.20;99.90;;;;;;5035298;28;20104;-78
2023/01/09 07:51:56;;;;;;;6.63;0.82;;;8.20;99.90;;;;;;5017016;28;20033;-81
2023/01/09 07:54:22;;;;;;;6.95;0.95;;;8.20;99.90;;;;;;5001335;28;20030;-83
2023/01/09 07:56:47;;;;;;;13.05;1.13;;;8.30;99.90;;;;;;5033690;28;20029;-83
2023/01/09 07:59:13;;;;;;;7.50;1.38;;;8.20;99.90;;;;;;5001509;28;20034;-80
2023/01/09 08:01:39;;;;;;;6.00;0.85;;;8.10;99.90;;;;;;5034488;28;20554;-78
2023/01/09 08:04:04;;;;;;;12.18;1.90;;;8.10;99.90;;;;;;5016573;28;20033;-80
2023/01/09 08:06:30;;;;;;;5.93;0.90;;;8.10;99.90;;;;;;5033283;28;20029;-83
2023/01/09 08:08:57;;;;;;;10.05;1.73;;;8.10;99.90;;;;;;5034650;28;20029;-82
2023/01/09 08:11:23;;;;;;;4.40;0.80;;;8.10;99.90;;;;;;5033244;28;20044;-81
2023/01/09 08:13:49;;;;;;;5.45;1.08;;;8.00;99.90;;;;;;5033327;28;20030;-78
2023/01/09 08:16:15;;;;;;;11.70;1.52;;;8.00;99.90;;;;;;5033366;28;20500;-77
2023/01/09 08:18:40;;;;;;;5.68;1.52;;;8.00;99.90;;;;;;5034443;28;20029;-77
2023/01/09 08:21:06;;;;;;;5.05;1.05;;;7.90;99.90;;;;;;5032928;28;20029;-78
2023/01/09 08:23:32;;;;;;;4.88;1.05;;;7.90;99.90;;;;;;5016307;28;20029;-77
2023/01/09 08:25:58;;;;;;;5.00;0.98;;;8.00;99.90;;;;;;5032224;28;20087;-82
2023/01/09 08:28:24;;;;;;;4.00;1.25;;;8.00;99.90;;;;;;5033052;28;20030;-82
2023/01/09 08:30:50;;;;;;;3.55;1.00;;;7.90;99.90;;;;;;5016430;28;20033;-81
2023/01/09 08:33:15;;;;;;;4.40;1.30;;;8.00;99.90;;;;;;5033171;28;20096;-80
2023/01/09 08:35:43;;;;;;;7.10;1.42;;;8.00;99.90;;;;;;5016587;28;20029;-82
2023/01/09 08:38:08;;;;;;;8.18;1.58;;;7.90;99.90;;;;;;5033998;28;20080;-83
2023/01/09 08:40:34;;;;;;;6.35;1.40;;;8.00;99.90;;;;;;5034209;28;20049;-81
2023/01/09 08:48:29;;;;;;;8.30;1.33;;;7.90;99.90;;;;;;5034286;28;20083;-83
2023/01/09 08:50:54;;;;;;;5.10;1.52;;;7.90;99.90;;;;;;5032172;28;20041;-82
2023/01/09 08:53:20;;;;;;;5.95;1.60;;;8.00;99.90;;;;;;5032605;28;20347;-82
2023/01/09 08:55:46;;;;;;;5.95;1.60;;;7.90;99.90;;;;;;5033604;28;20501;-82
2023/01/09 08:58:11;;;;;;;10.93;1.90;;;7.90;99.90;;;;;;5032326;28;20536;-83
2023/01/09 09:00:37;;;;;;;7.75;1.70;;;7.90;99.90;;;;;;5015703;28;20032;-80
2023/01/09 09:03:03;;;;;;;4.47;1.63;;;7.90;99.90;;;;;;5015521;28;20052;-77
2023/01/09 09:05:30;;;;;;;7.72;1.85;;;7.90;99.90;;;;;;5015680;28;20124;-77
2023/01/09 09:07:57;;;;;;;5.25;1.45;;;7.90;99.90;;;;;;5032185;28;20037;-77
2023/01/09 09:10:25;;;;;;;6.20;1.42;;;7.90;99.90;;;;;;5032681;28;20358;-77
2023/01/09 09:12:52;;;;;;;6.85;1.50;;;7.90;99.90;;;;;;5033288;28;20163;-78
2023/01/09 09:15:25;;;;;;;3.08;1.65;;;7.90;99.90;;;;;;5033188;28;20034;-79
2023/01/09 09:17:53;;;;;;;4.70;1.75;;;7.90;99.90;;;;;;5033530;28;20076;-82
2023/01/09 09:20:23;;;;;;;4.57;1.50;;;7.90;99.90;;;;;;5031805;28;20036;-82
2023/01/09 09:22:49;;;;;;;4.35;1.98;;;8.00;99.90;;;;;;5032166;28;20029;-81
2023/01/09 09:25:15;;;;;;;4.22;2.10;;;8.00;99.90;;;;;;5015709;28;20433;-82
2023/01/09 09:27:41;;;;;;;4.55;1.80;;;8.00;99.90;;;;;;5032044;28;20070;-83
2023/01/09 09:30:08;;;;;;;4.78;1.80;;;8.00;99.90;;;;;;5031926;28;20025;-82
2023/01/09 09:32:34;;;;;;;5.85;1.77;;;8.00;99.90;;;;;;5031427;28;20123;-84
2023/01/09 09:35:00;;;;;;;6.82;2.00;;;8.10;99.90;;;;;;5032970;28;20447;-83
2023/01/09 09:37:26;;;;;;;4.50;2.10;;;8.10;99.90;;;;;;5015206;28;20038;-83
2023/01/09 09:39:51;;;;;;;7.13;2.03;;;8.10;99.90;;;;;;5035029;28;20025;-83
2023/01/09 09:45:42;;;;;;;5.03;1.88;;;8.10;99.90;;;;;;5037481;28;20392;-83
2023/01/09 09:48:17;;;;;;;6.93;1.80;;;8.10;99.90;;;;;;5035756;28;20034;-83
2023/01/09 09:51:13;;;;;;;3.75;1.40;;;8.10;99.90;;;;;;5035923;28;20052;-84
2023/01/09 09:53:47;;;;;;;4.75;1.30;;;8.10;99.90;;;;;;5035808;28;20033;-83
2023/01/09 09:56:16;;;;;;;7.70;1.73;;;8.10;99.90;;;;;;5037082;28;20121;-83
2023/01/09 09:58:58;;;;;;;6.40;1.85;;;8.10;99.90;;;;;;5035511;28;20056;-83
2023/01/09 10:01:40;;;;;;;8.30;1.58;;;8.20;99.90;;;;;;5037232;28;20139;-83
2023/01/09 10:04:13;;;;;;;5.95;1.65;;;8.20;99.90;;;;;;5036866;28;20048;-83
2023/01/09 10:06:46;;;;;;;5.50;1.93;;;8.10;99.90;;;;;;5035575;28;20065;-80
2023/01/09 10:09:30;;;;;;;;;;;8.10;99.90;;;;;;5037156;28;20268;-78
2023/01/09 10:12:12;;;;;;;6.25;1.85;;;8.20;99.90;;;;;;5037026;28;19920;-82
2023/01/09 10:14:38;;;;;;;5.00;1.80;;;8.20;99.90;;;;;;5035798;28;20483;-84
2023/01/09 10:17:20;;;;;;;7.93;1.70;;;8.30;99.90;;;;;;5035343;28;20033;-80
2023/01/09 10:19:55;;;;;;;5.55;2.13;;;8.30;99.90;;;;;;5036539;28;20117;-84
2023/01/09 10:22:29;;;;;;;6.10;2.03;;;8.30;99.90;;;;;;5035349;28;20025;-84
2023/01/09 10:25:38;;;;;;;6.55;2.20;;;8.40;99.90;;;;;;5036853;28;20037;-84
2023/01/09 10:28:10;;;;;;;8.38;2.60;;;8.40;99.90;;;;;;5036598;28;20026;-82
2023/01/09 10:31:13;;;;;;;5.30;2.70;;;8.50;99.90;;;;;;5035376;28;20060;-84
2023/01/09 10:33:57;;;;;;;6.10;2.67;;;8.50;99.90;;;;;;5036207;28;20366;-84
2023/01/09 10:37:02;;;;;;;4.75;2.47;;;8.50;99.90;;;;;;5035170;28;20034;-82
2023/01/09 10:39:31;;;;;;;7.10;2.30;;;8.40;99.90;;;;;;5035564;28;20056;-83
2023/01/09 10:42:03;;;;;;;4.60;2.20;;;8.50;99.90;;;;;;5034436;28;20044;-83
2023/01/09 10:44:36;;;;;;;6.47;1.27;;;8.50;99.90;;;;;;5034913;28;20101;-83
2023/01/09 10:47:07;;;;;;;5.78;1.75;;;8.50;99.90;;;;;;5035511;28;20026;-83
2023/01/09 10:49:35;;;;;;;4.75;1.38;;;8.50;99.90;;;;;;5035784;28;20109;-83
2023/01/09 10:52:16;;;;;;;5.55;2.10;;;8.50;99.90;;;;;;5034517;28;20042;-83
2023/01/09 10:54:54;;;;;;;6.63;1.90;;;8.50;99.90;;;;;;5035225;28;20029;-82
2023/01/09 10:57:41;;;;;;;8.25;1.60;;;8.50;99.90;;;;;;5036332;28;20032;-84
2023/01/09 11:00:17;;;;;;;6.95;1.42;;;8.40;99.90;;;;;;5035716;28;20466;-84
2023/01/09 11:02:43;;;;;;;4.30;1.40;;;8.40;99.90;;;;;;5019060;28;20163;-84
2023/01/09 11:05:18;;;;;;;5.95;1.48;;;8.40;99.90;;;;;;5035216;28;20477;-83
2023/01/09 11:07:48;;;;;;;5.22;1.50;;;8.40;99.90;;;;;;5035777;28;20117;-84
2023/01/09 11:10:15;;;;;;;5.20;1.60;;;8.40;99.90;;;;;;5035731;28;20022;-83
2023/01/09 11:12:41;;;;;;;6.70;2.05;;;8.50;99.90;;;;;;5034091;28;20045;-82
2023/01/09 11:15:18;;;;;;;7.13;2.00;;;8.50;99.90;;;;;;5035488;28;20029;-81
2023/01/09 11:17:45;;;;;;;6.43;2.10;;;8.70;99.90;;;;;;5034244;28;20485;-82
2023/01/09 11:20:19;;;;;;;8.13;2.35;;;8.90;99.90;;;;;;5017445;28;20061;-77
2023/01/09 11:22:46;;;;;;;8.55;1.92;;;8.90;99.90;;;;;;5035593;28;20033;-78
2023/01/09 11:25:14;;;;;;;4.40;1.45;;;9.00;99.90;;;;;;5034441;28;20026;-80
2023/01/09 11:27:40;;;;;;;5.38;1.20;;;9.10;99.90;;;;;;5034547;28;20361;-79
2023/01/09 11:30:25;;;;;;;3.95;1.23;;;9.10;99.90;;;;;;5035136;28;20029;-80
2023/01/09 11:32:50;;;;;;;5.45;1.58;;;9.20;99.90;;;;;;5034845;28;20045;-80
2023/01/09 11:35:22;;;;;;;2.05;0.73;;;9.20;99.90;;;;;;5037308;28;20378;-84
2023/01/09 11:38:04;;;;;;;3.73;1.27;;;9.20;99.90;;;;;;5036034;28;20030;-81
2023/01/09 11:40:44;;;;;;;2.42;0.82;;;9.10;99.90;;;;;;5035440;28;20081;-83
2023/01/09 11:43:14;;;;;;;2.90;1.00;;;9.10;99.90;;;;;;5035872;28;20101;-82
2023/01/09 11:45:50;;;;;;;4.97;0.85;;;9.00;99.90;;;;;;5033589;28;20470;-79
2023/01/09 11:48:25;;;;;;;3.33;0.60;;;9.00;99.90;;;;;;5034216;28;20040;-80
2023/01/09 11:50:56;;;;;;;4.30;0.90;;;8.90;99.90;;;;;;5035047;28;20036;-78
2023/01/09 11:53:21;;;;;;;5.18;0.98;;;9.00;99.90;;;;;;5033759;28;20533;-78
2023/01/09 11:55:57;;;;;;;5.97;0.98;;;9.00;99.90;;;;;;5033178;28;20116;-78
2023/01/09 11:58:23;;;;;;;7.50;0.88;;;9.10;99.90;;;;;;5033567;28;20480;-78
2023/01/09 12:01:07;;;;;;;6.10;0.70;;;9.20;99.90;;;;;;5016039;28;20029;-79
2023/01/09 12:03:54;;;;;;;4.97;1.10;;;9.20;99.90;;;;;;5032926;28;20104;-80
2023/01/09 12:06:29;;;;;;;13.05;1.42;;;9.20;99.90;;;;;;5033629;28;20475;-79
2023/01/09 12:08:59;;;;;;;3.67;0.90;;;9.20;99.90;;;;;;5035154;28;20034;-86
2023/01/09 12:11:30;;;;;;;7.38;1.10;;;9.20;99.90;;;;;;5033770;28;20220;-86
2023/01/09 12:14:29;;;;;;;7.40;1.05;;;9.20;99.90;;;;;;5033218;28;20064;-85
2023/01/09 12:17:11;;;;;;;4.63;0.80;;;9.10;99.90;;;;;;5032898;28;20032;-86
2023/01/09 12:19:40;;;;;;;8.80;0.95;;;9.20;99.90;;;;;;5033520;28;20022;-81
2023/01/09 12:22:21;;;;;;;10.38;1.80;;;9.30;99.90;;;;;;5034270;28;20033;-80
2023/01/09 12:25:14;;;;;;;8.77;1.73;;;9.30;99.90;;;;;;5034541;28;20029;-80
2023/01/09 12:27:48;;;;;;;6.78;1.23;;;9.30;99.90;;;;;;5034489;28;20030;-80
2023/01/09 12:30:44;;;;;;;12.10;1.35;;;9.30;99.90;;;;;;5033588;28;20026;-80
2023/01/09 12:33:24;;;;;;;7.15;1.05;;;9.30;99.90;;;;;;5033911;28;20041;-80
2023/01/09 12:36:13;;;;;;;9.55;1.10;;;9.40;99.90;;;;;;5032451;28;20037;-87
2023/01/09 12:39:18;;;;;;;10.70;1.45;;;9.40;99.90;;;;;;5033329;28;20355;-83
2023/01/09 12:42:12;;;;;;;8.00;1.98;;;9.40;99.90;;;;;;5031932;28;20033;-86
2023/01/09 12:44:59;;;;;;;7.70;1.30;;;9.40;99.90;;;;;;5032667;28;20030;-85
2023/01/09 12:47:47;;;;;;;16.83;4.05;;;9.40;99.90;;;;;;5033131;28;20374;-86
2023/01/09 12:50:28;;;;;;;9.55;1.70;;;9.40;99.90;;;;;;5033564;28;20017;-86
2023/01/09 12:53:20;;;;;;;7.13;1.13;;;9.40;99.90;;;;;;5032551;28;20033;-85
2023/01/09 12:55:59;;;;;;;6.82;1.30;;;9.40;99.90;;;;;;5033072;28;20025;-85
2023/01/09 12:59:13;;;;;;;8.30;1.48;;;9.40;99.90;;;;;;5034289;28;20581;-85
2023/01/09 13:01:45;;;;;;;12.60;1.35;;;9.40;99.90;;;;;;5026347;28;20056;-84
2023/01/09 13:04:29;;;;;;;11.35;1.58;;;9.50;99.90;;;;;;5033376;28;20076;-86
2023/01/09 13:07:18;;;;;;;9.98;1.33;;;9.50;99.90;;;;;;5033376;28;20026;-86
2023/01/09 13:09:48;;;;;;;9.20;1.30;;;9.40;99.90;;;;;;5032364;28;20171;-87
2023/01/09 13:12:24;;;;;;;11.35;1.65;;;9.40;99.90;;;;;;5033758;28;20061;-87
2023/01/09 13:15:18;;;;;;;11.52;1.75;;;9.50;99.90;;;;;;5032945;28;20029;-85
2023/01/09 13:17:51;;;;;;;12.30;1.20;;;9.50;99.90;;;;;;5033171;28;20029;-87
2023/01/09 13:20:27;;;;;;;10.52;1.55;;;9.50;99.90;;;;;;5033086;28;20025;-87
2023/01/09 13:22:54;;;;;;;15.27;1.98;;;9.60;99.90;;;;;;5033092;28;20030;-86
2023/01/09 13:25:51;;;;;;;11.80;1.20;;;9.60;99.90;;;;;;5016569;28;20030;-87